Time;durP1;ratioP1;P1;durP2;ratioP2;P2;SDS_P1;SDS_P2;PMS_P1;PMS_P2;Temp;Humidity;BMP_temperature;BMP_pressure;BME280_temperature;BME280_humidity;BME280_pressure;Samples;Min_cycle;Max_cycle;Signal;HPM_P1;HPM_P2
2022/09/03 00:01:57;;;;;;;0.98;0.32;;;17.40;97.60;;;;;;5071454;28;20127;-85
2022/09/03 00:04:52;;;;;;;0.43;0.22;;;17.40;97.50;;;;;;5071111;28;20024;-85
2022/09/03 00:07:29;;;;;;;0.50;0.20;;;17.40;97.50;;;;;;5075524;28;20021;-85
2022/09/03 00:10:04;;;;;;;1.65;0.40;;;17.40;97.60;;;;;;5062704;28;20381;-85
2022/09/03 00:12:36;;;;;;;1.65;0.28;;;17.40;97.40;;;;;;5068787;28;20104;-85
2022/09/03 00:15:18;;;;;;;0.82;0.20;;;17.40;97.40;;;;;;5068682;28;20736;-85
2022/09/03 00:17:53;;;;;;;0.80;0.30;;;17.40;97.00;;;;;;5071479;28;20036;-85
2022/09/03 00:20:30;;;;;;;1.40;0.60;;;17.40;97.90;;;;;;5071437;28;20052;-85
2022/09/03 00:23:02;;;;;;;0.68;0.20;;;17.40;97.30;;;;;;5072121;28;20048;-85
2022/09/03 00:25:54;;;;;;;2.17;0.47;;;17.40;97.20;;;;;;5068037;28;20025;-85
2022/09/03 00:28:28;;;;;;;2.63;0.40;;;17.40;97.40;;;;;;5066773;28;20016;-85
2022/09/03 00:31:20;;;;;;;1.73;0.20;;;17.40;97.70;;;;;;5071635;28;20025;-85
2022/09/03 00:33:50;;;;;;;6.43;0.50;;;17.40;98.10;;;;;;5039751;28;20039;-85
2022/09/03 00:36:24;;;;;;;0.88;0.40;;;17.40;98.20;;;;;;5070692;28;20075;-85
2022/09/03 00:38:51;;;;;;;0.70;0.20;;;17.40;98.20;;;;;;5066527;28;20465;-85
2022/09/03 00:41:37;;;;;;;0.73;0.30;;;17.50;98.00;;;;;;5068239;28;20028;-85
2022/09/03 00:44:25;;;;;;;0.88;0.30;;;17.50;98.10;;;;;;5077936;28;20070;-85
2022/09/03 00:47:23;;;;;;;0.75;0.30;;;17.50;98.20;;;;;;5072443;28;20444;-85
2022/09/03 00:50:25;;;;;;;0.90;0.30;;;17.50;98.10;;;;;;5058703;28;20036;-85
2022/09/03 00:52:59;;;;;;;0.88;0.22;;;17.50;98.20;;;;;;5007015;28;20509;-85
2022/09/03 00:55:37;;;;;;;0.47;0.30;;;17.50;98.00;;;;;;5070774;28;20409;-85
2022/09/03 00:58:19;;;;;;;1.20;0.30;;;17.50;97.90;;;;;;5067290;28;20062;-85
2022/09/03 01:00:45;;;;;;;2.35;1.13;;;17.50;97.80;;;;;;5069514;28;20094;-85
2022/09/03 01:03:13;;;;;;;0.82;0.30;;;17.50;98.20;;;;;;5065250;28;20048;-84
2022/09/03 01:05:50;;;;;;;0.93;0.30;;;17.50;98.40;;;;;;5071094;28;20032;-85
2022/09/03 01:08:49;;;;;;;0.30;0.20;;;17.50;98.00;;;;;;5067190;28;20019;-85
2022/09/03 01:11:25;;;;;;;1.38;0.30;;;17.40;97.90;;;;;;5070240;28;20017;-85
2022/09/03 01:14:25;;;;;;;1.58;0.30;;;17.40;98.30;;;;;;5067317;28;20037;-85
2022/09/03 01:17:01;;;;;;;0.80;0.30;;;17.40;98.10;;;;;;5068714;28;20541;-85
2022/09/03 01:19:34;;;;;;;0.90;0.30;;;17.40;98.50;;;;;;5060530;28;20070;-85
2022/09/03 01:22:38;;;;;;;1.02;0.47;;;17.40;98.90;;;;;;5066332;28;20028;-85
2022/09/03 01:25:30;;;;;;;1.13;0.20;;;17.50;99.00;;;;;;5060774;28;20075;-85
2022/09/03 01:28:09;;;;;;;0.43;0.20;;;17.40;98.80;;;;;;5065967;28;20028;-85
2022/09/03 01:30:47;;;;;;;1.30;0.40;;;17.40;98.50;;;;;;5063838;28;20466;-85
2022/09/03 01:33:26;;;;;;;1.08;0.43;;;17.40;98.90;;;;;;5068235;28;20499;-85
2022/09/03 01:36:02;;;;;;;2.40;0.30;;;17.40;98.90;;;;;;5070913;28;20388;-85
2022/09/03 01:38:33;;;;;;;1.02;0.60;;;17.30;98.70;;;;;;5056631;28;20354;-84
2022/09/03 01:44:17;;;;;;;0.93;0.40;;;17.30;99.10;;;;;;5060863;28;20381;-85
2022/09/03 01:46:44;;;;;;;0.50;0.30;;;17.30;98.70;;;;;;5070884;28;20021;-85
2022/09/03 01:49:33;;;;;;;0.65;0.30;;;17.30;98.90;;;;;;5072313;28;20039;-85
2022/09/03 01:52:18;;;;;;;1.17;0.40;;;17.20;99.10;;;;;;5056786;28;20037;-85
2022/09/03 01:55:01;;;;;;;1.85;0.38;;;17.20;99.50;;;;;;5071728;28;20028;-85
2022/09/03 01:57:57;;;;;;;0.75;0.30;;;17.20;99.50;;;;;;5067328;28;20131;-85
2022/09/03 02:00:24;;;;;;;1.13;0.20;;;17.20;99.70;;;;;;5066324;28;20024;-85
2022/09/03 02:02:51;;;;;;;0.68;0.30;;;17.20;99.50;;;;;;5068951;28;20060;-85
2022/09/03 02:05:23;;;;;;;0.57;0.32;;;17.20;99.60;;;;;;5065371;28;20024;-85
2022/09/03 02:08:09;;;;;;;1.25;0.60;;;17.10;99.40;;;;;;5068189;28;20052;-85
2022/09/03 02:10:44;;;;;;;1.15;0.40;;;17.20;99.80;;;;;;5064864;28;20424;-85
2022/09/03 02:13:12;;;;;;;1.48;0.40;;;17.10;99.90;;;;;;5070666;28;20013;-85
2022/09/03 02:15:42;;;;;;;0.70;0.30;;;17.20;99.90;;;;;;5061635;28;20052;-85
2022/09/03 02:18:17;;;;;;;0.75;0.30;;;17.10;99.90;;;;;;5070688;28;20036;-85
2022/09/03 02:20:45;;;;;;;1.33;0.38;;;17.00;99.90;;;;;;5071635;28;20027;-85
2022/09/03 02:23:11;;;;;;;0.70;0.30;;;17.00;99.90;;;;;;5069901;28;20027;-84
2022/09/03 02:25:43;;;;;;;1.73;0.45;;;17.00;99.90;;;;;;5070161;28;20397;-85
2022/09/03 02:28:10;;;;;;;0.75;0.30;;;16.90;99.90;;;;;;5071233;28;20618;-85
2022/09/03 02:30:35;;;;;;;1.50;0.40;;;16.90;99.90;;;;;;5071102;28;20052;-85
2022/09/03 02:33:02;;;;;;;0.70;0.38;;;16.90;99.90;;;;;;5066774;28;20048;-85
2022/09/03 02:35:27;;;;;;;0.85;0.38;;;16.90;99.90;;;;;;5064585;28;20021;-84
2022/09/03 02:37:53;;;;;;;1.77;0.30;;;16.90;99.90;;;;;;5072261;28;20027;-85
2022/09/03 02:40:19;;;;;;;1.35;0.45;;;16.90;99.90;;;;;;5063764;28;20038;-85
2022/09/03 02:42:46;;;;;;;0.65;0.30;;;16.90;99.90;;;;;;5067005;28;20061;-85
2022/09/03 02:45:28;;;;;;;1.35;0.28;;;16.80;99.90;;;;;;5073941;28;20024;-84
2022/09/03 02:47:57;;;;;;;0.50;0.30;;;16.70;99.90;;;;;;5070062;28;20074;-85
2022/09/03 02:50:24;;;;;;;1.60;0.40;;;16.70;99.90;;;;;;5076288;28;20449;-85
2022/09/03 02:52:50;;;;;;;2.53;0.40;;;16.70;99.90;;;;;;5074509;28;20431;-85
2022/09/03 02:55:18;;;;;;;1.20;0.40;;;16.70;99.90;;;;;;5075536;28;20029;-85
2022/09/03 02:57:44;;;;;;;2.22;0.30;;;16.70;99.90;;;;;;5075615;28;20020;-85
2022/09/03 03:00:11;;;;;;;1.20;0.40;;;16.60;99.90;;;;;;5066966;28;20050;-84
2022/09/03 03:02:36;;;;;;;1.38;0.40;;;16.60;99.90;;;;;;5065523;28;20119;-85
2022/09/03 03:05:03;;;;;;;0.77;0.40;;;16.60;99.90;;;;;;5071998;28;20055;-85
2022/09/03 03:07:35;;;;;;;0.85;0.20;;;16.50;99.90;;;;;;5072276;28;20458;-85
2022/09/03 03:10:01;;;;;;;0.73;0.30;;;16.50;99.90;;;;;;5075176;28;20492;-85
2022/09/03 03:12:30;;;;;;;1.13;0.30;;;16.50;99.90;;;;;;5063492;28;20036;-85
2022/09/03 03:14:55;;;;;;;1.73;0.38;;;16.50;99.90;;;;;;5062304;28;20170;-84
2022/09/03 03:17:21;;;;;;;1.27;0.40;;;16.50;99.90;;;;;;5073181;28;20057;-85
2022/09/03 03:19:48;;;;;;;0.68;0.30;;;16.40;99.90;;;;;;5075577;28;20032;-85
2022/09/03 03:22:13;;;;;;;1.15;0.40;;;16.40;99.90;;;;;;5074054;28;20084;-84
2022/09/03 03:24:39;;;;;;;0.75;0.40;;;16.30;99.90;;;;;;5066815;28;20057;-84
2022/09/03 03:27:06;;;;;;;1.50;0.50;;;16.30;99.90;;;;;;5073580;28;20028;-84
2022/09/03 03:29:31;;;;;;;0.95;0.43;;;16.20;99.90;;;;;;5075457;28;20023;-84
2022/09/03 03:31:57;;;;;;;0.82;0.30;;;16.30;99.90;;;;;;5071634;28;20076;-84
2022/09/03 03:34:22;;;;;;;2.53;0.35;;;16.30;99.90;;;;;;5075461;28;20354;-85
2022/09/03 03:36:48;;;;;;;0.50;0.30;;;16.20;99.90;;;;;;5066180;28;20032;-85
2022/09/03 03:39:14;;;;;;;1.40;0.38;;;16.30;99.90;;;;;;5069174;28;20027;-85
2022/09/03 03:41:39;;;;;;;1.25;0.38;;;16.30;99.90;;;;;;5071294;28;20054;-85
2022/09/03 03:44:06;;;;;;;2.25;0.47;;;16.20;99.90;;;;;;5075020;28;20397;-84
2022/09/03 03:46:34;;;;;;;1.52;0.40;;;16.30;99.90;;;;;;5065029;28;20056;-85
2022/09/03 03:49:00;;;;;;;0.98;0.40;;;16.30;99.90;;;;;;5072245;28;20048;-85
2022/09/03 03:51:26;;;;;;;0.93;0.40;;;16.30;99.90;;;;;;5073308;28;20067;-85
2022/09/03 03:53:56;;;;;;;1.13;0.30;;;16.20;99.90;;;;;;5067486;28;20419;-84
2022/09/03 03:56:23;;;;;;;1.25;0.40;;;16.20;99.90;;;;;;5068663;28;20028;-85
2022/09/03 03:58:48;;;;;;;0.93;0.50;;;16.20;99.90;;;;;;5070398;28;20709;-85
2022/09/03 04:01:19;;;;;;;0.80;0.38;;;16.20;99.90;;;;;;5068814;28;20021;-84
2022/09/03 04:03:45;;;;;;;1.47;0.40;;;16.30;99.90;;;;;;5066027;28;20044;-84
2022/09/03 04:06:13;;;;;;;0.85;0.30;;;16.30;99.90;;;;;;5065499;28;20024;-84
2022/09/03 04:08:41;;;;;;;0.98;0.30;;;16.30;99.90;;;;;;5070932;28;20474;-84
2022/09/03 04:11:09;;;;;;;2.17;0.68;;;16.30;99.90;;;;;;5062744;28;20100;-84
2022/09/03 04:13:37;;;;;;;0.50;0.30;;;16.30;99.90;;;;;;5072243;28;20039;-84
2022/09/03 04:16:12;;;;;;;1.70;0.60;;;16.30;99.90;;;;;;5073848;28;20380;-84
2022/09/03 04:18:38;;;;;;;0.80;0.40;;;16.30;99.90;;;;;;5073301;28;20024;-85
2022/09/03 04:21:09;;;;;;;1.45;0.50;;;16.20;99.90;;;;;;5068421;28;20021;-85
2022/09/03 04:23:38;;;;;;;1.25;0.40;;;16.20;99.90;;;;;;5070518;28;20047;-84
2022/09/03 04:26:04;;;;;;;1.25;0.40;;;16.10;99.90;;;;;;5073292;28;20025;-85
2022/09/03 04:28:31;;;;;;;0.40;0.30;;;16.10;99.90;;;;;;5071020;28;20493;-84
2022/09/03 04:31:09;;;;;;;1.75;0.50;;;16.00;99.90;;;;;;5072070;28;20021;-84
2022/09/03 04:33:38;;;;;;;0.88;0.30;;;16.00;99.90;;;;;;5065147;28;20362;-85
2022/09/03 04:36:14;;;;;;;1.75;0.50;;;16.00;99.90;;;;;;5067968;28;20096;-84
2022/09/03 04:38:42;;;;;;;1.02;0.57;;;16.10;99.90;;;;;;5062275;28;20082;-84
2022/09/03 04:41:10;;;;;;;1.48;0.50;;;16.10;99.90;;;;;;5082897;22;20048;-83
2022/09/03 04:43:36;;;;;;;1.23;0.40;;;16.10;99.90;;;;;;5068535;28;20112;-83
2022/09/03 04:46:05;;;;;;;1.48;0.47;;;16.10;99.90;;;;;;5081953;28;20155;-83
2022/09/03 04:48:32;;;;;;;2.90;0.40;;;16.10;99.90;;;;;;5069642;28;20485;-83
2022/09/03 04:51:09;;;;;;;0.55;0.32;;;16.10;99.90;;;;;;5086785;28;20473;-83
2022/09/03 04:53:37;;;;;;;1.30;0.50;;;16.10;99.90;;;;;;5070919;28;20138;-83
2022/09/03 04:56:11;;;;;;;1.42;0.60;;;16.10;99.90;;;;;;5068596;28;20032;-83
2022/09/03 04:58:37;;;;;;;1.13;0.40;;;16.00;99.90;;;;;;5070017;28;20032;-82
2022/09/03 05:01:18;;;;;;;1.02;0.47;;;16.00;99.90;;;;;;5069389;28;20027;-83
2022/09/03 05:03:44;;;;;;;2.97;0.35;;;15.90;99.90;;;;;;5068601;28;20094;-83
2022/09/03 05:06:11;;;;;;;1.52;0.60;;;15.90;99.90;;;;;;5069127;28;20634;-82
2022/09/03 05:08:36;;;;;;;1.35;0.50;;;16.00;99.90;;;;;;5070879;28;20535;-83
2022/09/03 05:11:06;;;;;;;1.05;0.50;;;15.90;99.90;;;;;;5065010;28;20021;-83
2022/09/03 05:13:34;;;;;;;0.82;0.40;;;16.00;99.90;;;;;;5070838;28;20116;-83
2022/09/03 05:16:00;;;;;;;2.75;0.90;;;16.00;99.90;;;;;;5084682;28;20024;-83
2022/09/03 05:18:27;;;;;;;1.48;0.63;;;16.00;99.90;;;;;;5069044;28;20032;-83
2022/09/03 05:21:05;;;;;;;2.25;0.50;;;16.10;99.90;;;;;;5070634;28;20035;-83
2022/09/03 05:23:34;;;;;;;0.93;0.32;;;16.10;99.90;;;;;;5070529;28;20020;-83
2022/09/03 05:26:02;;;;;;;1.52;0.60;;;16.00;99.90;;;;;;5068291;28;20024;-83
2022/09/03 05:28:29;;;;;;;1.02;0.52;;;16.10;99.90;;;;;;5071661;28;20017;-83
2022/09/03 05:30:59;;;;;;;1.00;0.50;;;16.10;99.90;;;;;;5063977;28;20020;-83
2022/09/03 05:33:24;;;;;;;0.90;0.40;;;16.20;99.90;;;;;;5069329;28;20105;-83
2022/09/03 05:35:52;;;;;;;0.93;0.30;;;16.30;99.90;;;;;;5068323;28;20067;-83
2022/09/03 05:38:18;;;;;;;1.13;0.50;;;16.30;99.90;;;;;;5086046;28;20025;-82
2022/09/03 05:40:43;;;;;;;1.02;0.47;;;16.30;99.90;;;;;;5070310;28;20040;-83
2022/09/03 05:43:09;;;;;;;1.08;0.40;;;16.40;99.90;;;;;;5069261;28;20384;-83
2022/09/03 05:45:35;;;;;;;1.58;0.60;;;16.40;99.90;;;;;;5069421;28;20104;-83
2022/09/03 05:48:01;;;;;;;1.02;0.50;;;16.40;99.90;;;;;;5069285;28;20028;-83
2022/09/03 05:50:27;;;;;;;2.35;0.57;;;16.40;99.90;;;;;;5085828;28;20016;-83
2022/09/03 05:52:53;;;;;;;1.92;0.65;;;16.40;99.90;;;;;;5069114;28;20028;-83
2022/09/03 05:55:19;;;;;;;0.93;0.40;;;16.50;99.90;;;;;;5070113;28;20369;-83
2022/09/03 05:57:50;;;;;;;1.13;0.50;;;16.50;99.90;;;;;;5070172;28;20046;-83
2022/09/03 06:00:17;;;;;;;1.15;0.50;;;16.50;99.90;;;;;;5069271;28;20020;-83
2022/09/03 06:02:48;;;;;;;1.17;0.38;;;16.50;99.90;;;;;;5067762;28;20432;-83
2022/09/03 06:05:15;;;;;;;5.03;0.82;;;16.50;99.90;;;;;;5070091;28;20028;-83
2022/09/03 06:07:41;;;;;;;1.10;0.50;;;16.50;99.90;;;;;;5085564;28;20485;-83
2022/09/03 06:10:07;;;;;;;1.67;0.65;;;16.50;99.90;;;;;;5068231;28;20078;-83
2022/09/03 06:12:32;;;;;;;1.48;0.60;;;16.40;99.90;;;;;;5069016;28;20023;-83
2022/09/03 06:14:58;;;;;;;3.83;0.73;;;16.40;99.90;;;;;;5070138;28;20040;-83
2022/09/03 06:17:24;;;;;;;1.60;0.50;;;16.40;99.90;;;;;;5084849;28;20035;-83
2022/09/03 06:19:49;;;;;;;2.63;0.60;;;16.40;99.90;;;;;;5072341;28;20400;-83
2022/09/03 06:22:16;;;;;;;1.05;0.50;;;16.40;99.90;;;;;;5075118;28;20021;-83
2022/09/03 06:24:41;;;;;;;1.23;0.60;;;16.40;99.90;;;;;;5076584;28;20024;-83
2022/09/03 06:27:07;;;;;;;0.88;0.40;;;16.40;99.90;;;;;;5075859;28;20031;-83
2022/09/03 06:29:34;;;;;;;2.40;0.70;;;16.50;99.90;;;;;;5076032;28;20024;-83
2022/09/03 06:32:02;;;;;;;1.88;0.50;;;16.60;99.90;;;;;;5076680;28;20016;-83
2022/09/03 06:34:28;;;;;;;2.50;0.57;;;16.60;99.90;;;;;;5088470;28;20050;-83
2022/09/03 06:36:53;;;;;;;1.50;0.70;;;16.70;99.90;;;;;;5073849;28;20020;-83
2022/09/03 06:39:19;;;;;;;1.90;0.60;;;16.80;99.90;;;;;;5073469;28;20031;-83
2022/09/03 06:41:50;;;;;;;1.27;0.60;;;16.80;99.90;;;;;;5072724;28;20447;-83
2022/09/03 06:44:16;;;;;;;1.75;0.57;;;16.90;99.90;;;;;;5066308;28;20107;-83
2022/09/03 06:46:42;;;;;;;1.42;0.57;;;16.90;99.90;;;;;;5062777;28;20045;-83
2022/09/03 06:49:08;;;;;;;1.25;0.60;;;17.00;99.90;;;;;;5088749;28;20017;-83
2022/09/03 06:51:34;;;;;;;2.13;0.82;;;17.00;99.90;;;;;;5089098;28;20041;-83
2022/09/03 06:54:11;;;;;;;1.45;0.60;;;17.10;99.90;;;;;;5097473;28;20040;-83
2022/09/03 06:56:38;;;;;;;1.73;0.60;;;17.10;99.90;;;;;;5088749;28;20033;-84
2022/09/03 06:59:07;;;;;;;1.75;0.80;;;17.10;99.90;;;;;;5090331;28;20017;-83
2022/09/03 07:01:33;;;;;;;2.35;0.70;;;17.10;99.90;;;;;;5085416;28;20028;-83
2022/09/03 07:04:01;;;;;;;3.63;0.68;;;17.10;99.90;;;;;;5074117;28;20020;-83
2022/09/03 07:06:32;;;;;;;1.58;0.75;;;17.20;99.90;;;;;;5071940;28;20025;-83
2022/09/03 07:08:58;;;;;;;1.38;0.60;;;17.20;99.90;;;;;;5069247;28;20024;-84
2022/09/03 07:11:28;;;;;;;3.25;0.80;;;17.30;99.90;;;;;;5075216;28;20040;-83
2022/09/03 07:13:54;;;;;;;2.25;0.75;;;17.40;99.90;;;;;;5073639;28;20021;-83
2022/09/03 07:16:26;;;;;;;4.70;0.80;;;17.40;99.90;;;;;;5070446;28;20457;-83
2022/09/03 07:18:52;;;;;;;2.05;0.70;;;17.40;99.90;;;;;;5073153;28;20039;-83
2022/09/03 07:21:20;;;;;;;2.28;0.77;;;17.50;99.90;;;;;;5073049;28;20025;-83
2022/09/03 07:23:46;;;;;;;1.23;0.68;;;17.60;99.90;;;;;;5072366;28;20089;-83
2022/09/03 07:26:15;;;;;;;1.88;0.65;;;17.60;99.90;;;;;;5087868;28;20028;-83
2022/09/03 07:28:42;;;;;;;1.63;0.75;;;17.60;99.90;;;;;;5071622;28;20527;-82
2022/09/03 07:31:11;;;;;;;0.88;0.57;;;17.80;99.90;;;;;;5070314;28;20031;-83
2022/09/03 07:33:38;;;;;;;2.40;0.80;;;17.90;99.90;;;;;;5086984;28;20025;-83
2022/09/03 07:36:06;;;;;;;0.90;0.60;;;18.10;99.90;;;;;;5072459;28;20039;-83
2022/09/03 07:38:36;;;;;;;1.65;0.60;;;18.10;99.90;;;;;;5072830;28;20030;-83
2022/09/03 07:41:04;;;;;;;1.95;0.60;;;18.20;99.90;;;;;;5072229;28;20028;-83
2022/09/03 07:43:34;;;;;;;1.38;0.57;;;18.30;99.90;;;;;;5072330;28;20032;-83
2022/09/03 07:46:00;;;;;;;1.83;0.75;;;18.30;99.90;;;;;;5070484;28;20031;-83
2022/09/03 07:48:26;;;;;;;1.35;0.60;;;18.30;99.90;;;;;;5072677;28;20016;-83
2022/09/03 07:50:58;;;;;;;1.75;0.88;;;18.40;99.90;;;;;;5071090;28;20028;-83
2022/09/03 07:53:24;;;;;;;1.65;0.88;;;18.50;99.90;;;;;;5070918;28;20115;-83
2022/09/03 07:55:50;;;;;;;1.77;0.80;;;18.50;99.90;;;;;;5069996;28;20059;-83
2022/09/03 07:58:16;;;;;;;1.63;0.73;;;18.60;99.90;;;;;;5071127;28;20437;-83
2022/09/03 08:00:42;;;;;;;1.85;0.82;;;18.70;99.90;;;;;;5071211;28;20470;-83
2022/09/03 08:03:08;;;;;;;2.92;0.98;;;18.80;99.90;;;;;;5072260;28;20052;-83
2022/09/03 08:05:35;;;;;;;2.22;0.90;;;18.80;99.90;;;;;;5086877;28;20119;-83
2022/09/03 08:08:05;;;;;;;4.63;0.93;;;18.90;99.90;;;;;;5071124;28;20024;-84
2022/09/03 08:10:34;;;;;;;2.60;0.93;;;18.90;99.90;;;;;;5070655;28;20017;-84
2022/09/03 08:13:04;;;;;;;1.75;0.98;;;18.90;99.90;;;;;;5076266;28;20028;-83
2022/09/03 08:15:30;;;;;;;2.63;1.15;;;18.90;99.90;;;;;;5075879;28;20044;-83
2022/09/03 08:17:56;;;;;;;2.80;1.15;;;19.00;99.90;;;;;;5072974;28;20021;-83
2022/09/03 08:20:21;;;;;;;2.13;1.10;;;19.20;99.90;;;;;;5070810;28;20119;-83
2022/09/03 08:22:47;;;;;;;1.48;0.77;;;19.30;99.90;;;;;;5087319;28;20032;-83
2022/09/03 08:25:13;;;;;;;2.13;0.80;;;19.40;99.90;;;;;;5064897;28;20366;-84
2022/09/03 08:27:39;;;;;;;1.92;0.90;;;19.70;99.90;;;;;;5071429;28;20035;-83
2022/09/03 08:30:08;;;;;;;3.45;1.20;;;19.90;99.90;;;;;;5071618;28;20016;-83
2022/09/03 08:32:34;;;;;;;3.50;0.93;;;20.30;99.90;;;;;;5086536;28;20032;-83
2022/09/03 08:34:59;;;;;;;2.85;0.93;;;20.70;99.90;;;;;;5086574;28;20021;-84
2022/09/03 08:37:27;;;;;;;2.30;0.95;;;20.80;99.90;;;;;;5070017;28;20020;-83
2022/09/03 08:39:53;;;;;;;2.25;0.90;;;20.80;99.90;;;;;;5070117;28;20029;-83
2022/09/03 08:42:45;;;;;;;1.98;1.00;;;21.00;99.90;;;;;;5070916;28;20425;-83
2022/09/03 08:45:15;;;;;;;2.97;0.90;;;21.30;99.90;;;;;;5069893;28;20035;-83
2022/09/03 08:47:52;;;;;;;1.70;1.00;;;21.20;99.90;;;;;;5070944;28;20028;-84
2022/09/03 08:50:29;;;;;;;2.42;0.90;;;21.30;99.90;;;;;;5070787;28;20016;-84
2022/09/03 08:53:39;;;;;;;2.15;0.98;;;21.10;99.90;;;;;;5069464;28;20021;-83
2022/09/03 08:56:11;;;;;;;1.65;0.80;;;21.20;99.90;;;;;;5070460;28;20066;-83
2022/09/03 08:58:37;;;;;;;1.17;0.60;;;21.20;99.90;;;;;;5068836;28;20497;-83
2022/09/03 09:01:23;;;;;;;2.17;0.90;;;21.20;99.90;;;;;;5070961;28;20028;-84
2022/09/03 09:04:19;;;;;;;1.80;0.68;;;21.40;99.90;;;;;;5070887;28;20025;-84
2022/09/03 09:06:48;;;;;;;1.38;0.68;;;21.50;99.90;;;;;;5067155;28;20195;-84
2022/09/03 09:09:19;;;;;;;2.15;1.00;;;21.30;99.90;;;;;;5070633;28;20023;-83
2022/09/03 09:11:49;;;;;;;1.88;0.80;;;21.30;99.90;;;;;;5071018;28;20078;-84
2022/09/03 09:14:37;;;;;;;2.00;0.70;;;21.60;99.90;;;;;;5066136;28;20056;-83
2022/09/03 09:17:30;;;;;;;2.08;0.80;;;21.80;99.90;;;;;;5066189;28;20113;-83
2022/09/03 09:20:16;;;;;;;1.35;0.57;;;21.90;99.90;;;;;;5064402;28;20473;-83
2022/09/03 09:22:56;;;;;;;1.80;0.80;;;22.00;99.90;;;;;;5062551;28;20086;-84
2022/09/03 09:25:25;;;;;;;1.83;0.70;;;21.90;99.90;;;;;;5068891;28;20048;-84
2022/09/03 09:28:03;;;;;;;2.10;0.70;;;21.80;99.90;;;;;;5070567;28;20013;-83
2022/09/03 09:30:30;;;;;;;2.13;0.82;;;21.80;99.90;;;;;;5069592;28;20033;-84
2022/09/03 09:32:56;;;;;;;2.92;0.82;;;21.60;99.90;;;;;;5069720;28;20544;-83
2022/09/03 09:35:22;;;;;;;2.65;0.85;;;21.50;99.90;;;;;;5069043;28;20100;-84
2022/09/03 09:37:49;;;;;;;1.77;0.80;;;21.80;99.90;;;;;;5064233;28;20033;-85
2022/09/03 09:40:34;;;;;;;1.95;0.90;;;22.10;99.90;;;;;;5070171;28;20031;-83
2022/09/03 09:43:09;;;;;;;2.30;0.82;;;22.60;99.90;;;;;;5066000;28;20397;-83
2022/09/03 09:45:36;;;;;;;2.25;1.02;;;23.00;99.90;;;;;;5066929;28;20048;-83
2022/09/03 09:48:06;;;;;;;2.13;0.88;;;23.10;99.90;;;;;;5069434;28;20054;-83
2022/09/03 09:50:32;;;;;;;1.63;0.80;;;23.20;99.90;;;;;;5070143;28;20028;-83
2022/09/03 09:53:13;;;;;;;3.08;0.77;;;23.10;99.90;;;;;;5085788;28;20020;-83
2022/09/03 09:55:59;;;;;;;2.55;1.20;;;22.90;99.90;;;;;;5068535;28;20183;-83
2022/09/03 09:58:29;;;;;;;2.28;0.88;;;22.80;99.90;;;;;;5069160;28;20085;-83
2022/09/03 10:01:13;;;;;;;1.73;0.90;;;22.80;99.90;;;;;;5069127;28;20036;-83
2022/09/03 10:03:49;;;;;;;2.75;1.05;;;22.80;99.90;;;;;;5069993;28;20029;-83
2022/09/03 10:09:18;;;;;;;4.32;1.20;;;23.10;99.90;;;;;;5063277;28;20043;-84
2022/09/03 10:11:55;;;;;;;1.67;0.70;;;23.00;99.90;;;;;;5070048;28;20020;-83
2022/09/03 10:14:33;;;;;;;1.48;0.50;;;23.00;99.90;;;;;;5067855;28;20025;-84
2022/09/03 10:17:28;;;;;;;1.80;1.00;;;23.00;99.90;;;;;;5065720;28;20032;-83
2022/09/03 10:20:26;;;;;;;2.15;0.93;;;23.10;99.90;;;;;;5066283;28;20032;-84
2022/09/03 10:23:04;;;;;;;2.53;1.17;;;23.00;99.90;;;;;;5069107;28;20024;-83
2022/09/03 10:25:41;;;;;;;2.33;1.10;;;22.90;99.90;;;;;;5069773;28;20024;-83
2022/09/03 10:28:09;;;;;;;2.58;0.98;;;22.70;99.90;;;;;;5085780;28;20016;-83
2022/09/03 10:31:00;;;;;;;2.60;1.20;;;22.70;99.90;;;;;;5069102;28;20076;-83
2022/09/03 10:33:58;;;;;;;1.55;0.77;;;22.80;99.90;;;;;;5033671;28;20377;-84
2022/09/03 10:36:32;;;;;;;2.17;1.08;;;22.60;99.90;;;;;;5070419;28;20568;-83
2022/09/03 10:39:10;;;;;;;2.33;0.82;;;22.60;99.90;;;;;;5065781;28;20068;-84
2022/09/03 10:41:52;;;;;;;2.15;0.93;;;22.60;99.90;;;;;;5082974;28;20058;-83
2022/09/03 10:44:38;;;;;;;2.38;1.10;;;22.90;99.90;;;;;;5069669;28;20028;-83
2022/09/03 10:47:24;;;;;;;2.13;1.02;;;23.50;99.90;;;;;;5062831;28;20031;-84
2022/09/03 10:50:22;;;;;;;2.40;1.10;;;23.80;99.90;;;;;;5069450;28;20020;-84
2022/09/03 10:52:57;;;;;;;2.90;1.10;;;23.90;99.90;;;;;;5064373;28;20033;-84
2022/09/03 10:55:35;;;;;;;2.45;1.23;;;23.80;99.90;;;;;;5069411;28;20542;-84
2022/09/03 10:58:22;;;;;;;2.97;1.30;;;24.00;99.60;;;;;;5084626;28;20028;-84
2022/09/03 11:01:04;;;;;;;2.10;1.10;;;23.90;99.60;;;;;;5085265;28;20063;-84
2022/09/03 11:03:52;;;;;;;2.60;1.00;;;23.90;99.90;;;;;;5069761;28;20024;-84
2022/09/03 11:06:27;;;;;;;2.80;1.33;;;23.80;99.90;;;;;;5067171;28;20020;-84
2022/09/03 11:09:14;;;;;;;2.15;0.93;;;23.80;99.90;;;;;;5073081;28;20028;-84
2022/09/03 11:11:46;;;;;;;2.35;0.85;;;23.80;99.90;;;;;;5073459;28;20020;-84
2022/09/03 11:14:24;;;;;;;3.45;1.60;;;23.70;99.90;;;;;;5072211;28;20060;-83
2022/09/03 11:16:58;;;;;;;2.03;1.10;;;23.50;99.90;;;;;;5072265;28;20052;-84
2022/09/03 11:19:36;;;;;;;2.30;1.08;;;23.30;99.90;;;;;;5073301;28;20040;-84
2022/09/03 11:22:05;;;;;;;1.88;0.90;;;23.20;99.90;;;;;;5068700;28;20401;-84
2022/09/03 11:24:32;;;;;;;2.03;1.10;;;23.10;99.90;;;;;;5072985;28;20396;-84
2022/09/03 11:27:05;;;;;;;3.03;0.90;;;23.20;99.90;;;;;;5072267;28;20019;-83
2022/09/03 11:29:37;;;;;;;1.17;0.60;;;23.10;99.90;;;;;;5072108;28;20013;-84
2022/09/03 11:32:39;;;;;;;2.30;0.93;;;23.10;99.90;;;;;;5088512;28;20048;-83
2022/09/03 11:35:15;;;;;;;;;;;23.10;99.90;;;;;;5052678;28;20028;-84
2022/09/03 11:37:57;;;;;;;2.65;0.93;;;23.10;99.90;;;;;;5071754;28;19912;-84
2022/09/03 11:40:31;;;;;;;1.77;0.70;;;23.10;99.90;;;;;;5068665;28;20103;-84
2022/09/03 11:43:06;;;;;;;2.58;1.05;;;22.90;99.90;;;;;;5069950;28;20411;-84
2022/09/03 11:45:31;;;;;;;2.50;0.93;;;22.70;99.90;;;;;;5070957;28;20032;-84
2022/09/03 11:47:58;;;;;;;1.98;0.90;;;22.60;99.90;;;;;;5073173;28;20373;-84
2022/09/03 11:50:31;;;;;;;3.92;1.15;;;22.50;99.90;;;;;;5073554;28;20048;-84
2022/09/03 11:53:14;;;;;;;2.42;1.00;;;22.50;99.90;;;;;;5098508;28;20009;-84
2022/09/03 11:55:53;;;;;;;2.55;1.08;;;22.40;99.90;;;;;;5080710;28;20037;-84
2022/09/03 11:58:33;;;;;;;2.25;0.98;;;22.20;99.90;;;;;;5075077;28;20048;-83
2022/09/03 12:01:02;;;;;;;2.15;1.00;;;22.10;99.90;;;;;;5085472;28;20059;-84
2022/09/03 12:03:43;;;;;;;2.17;0.88;;;21.90;99.90;;;;;;5071658;28;20055;-84
2022/09/03 12:06:15;;;;;;;1.70;0.80;;;21.80;99.90;;;;;;5070232;28;20025;-84
2022/09/03 12:09:12;;;;;;;2.08;0.90;;;21.70;99.90;;;;;;5087366;28;20067;-83
2022/09/03 12:12:13;;;;;;;2.28;0.90;;;21.40;99.90;;;;;;5070072;28;20036;-83
2022/09/03 12:15:08;;;;;;;2.78;1.20;;;21.10;99.90;;;;;;5070134;28;20017;-83
2022/09/03 12:18:17;;;;;;;3.00;1.23;;;21.00;99.90;;;;;;5086625;28;20086;-83
2022/09/03 12:20:36;;;;;;;2.45;1.20;;;20.80;99.90;;;;;;5071049;28;20074;-82
2022/09/03 12:23:02;;;;;;;3.88;1.33;;;20.60;99.90;;;;;;5071768;28;20029;-82
2022/09/03 12:25:28;;;;;;;1.05;0.40;;;20.00;99.90;;;;;;5069936;28;20029;-82
2022/09/03 12:27:54;;;;;;;1.27;0.52;;;19.30;99.90;;;;;;5067831;28;20027;-82
2022/09/03 12:30:23;;;;;;;1.45;0.50;;;18.70;99.90;;;;;;5070002;28;20028;-82
2022/09/03 12:32:50;;;;;;;0.65;0.28;;;18.40;99.90;;;;;;5071455;28;20024;-82
2022/09/03 12:35:17;;;;;;;0.85;0.28;;;18.20;99.90;;;;;;5070094;28;20050;-82
2022/09/03 12:37:44;;;;;;;0.95;0.30;;;18.00;99.90;;;;;;5071128;28;20485;-83
2022/09/03 12:40:42;;;;;;;1.95;0.30;;;17.70;99.90;;;;;;5070072;28;20028;-82
2022/09/03 12:43:13;;;;;;;2.05;0.30;;;17.40;99.90;;;;;;5062014;28;20166;-83
2022/09/03 12:45:45;;;;;;;2.42;0.43;;;17.20;99.90;;;;;;5069705;28;20020;-82
2022/09/03 12:48:15;;;;;;;0.75;0.30;;;17.10;99.90;;;;;;5068842;28;20025;-82
2022/09/03 12:50:42;;;;;;;0.85;0.30;;;17.20;99.90;;;;;;5071014;28;20024;-82
2022/09/03 12:53:20;;;;;;;3.20;0.30;;;17.10;99.90;;;;;;5069545;28;20021;-82
2022/09/03 12:55:49;;;;;;;2.70;0.52;;;17.10;99.90;;;;;;5069077;28;20024;-82
2022/09/03 12:58:34;;;;;;;1.13;0.30;;;16.90;99.90;;;;;;5071398;28;20020;-82
2022/09/03 13:01:14;;;;;;;3.47;0.47;;;17.00;99.90;;;;;;5084048;28;20510;-82
2022/09/03 13:04:00;;;;;;;1.98;0.40;;;17.00;99.90;;;;;;5084624;28;20032;-82
2022/09/03 13:06:44;;;;;;;1.23;0.32;;;16.90;99.90;;;;;;5070674;28;20103;-82
2022/09/03 13:09:10;;;;;;;0.60;0.22;;;16.80;99.90;;;;;;5084563;28;20107;-81
2022/09/03 13:11:36;;;;;;;0.60;0.25;;;16.80;99.90;;;;;;5075185;28;20051;-82
2022/09/03 13:14:10;;;;;;;1.70;0.40;;;17.00;99.90;;;;;;5071188;28;20025;-81
2022/09/03 13:16:44;;;;;;;1.48;0.43;;;16.90;99.90;;;;;;5068314;28;20044;-81
2022/09/03 13:19:13;;;;;;;0.57;0.30;;;17.00;99.90;;;;;;5070909;28;20392;-81
2022/09/03 13:22:06;;;;;;;0.88;0.40;;;17.00;99.90;;;;;;5069848;28;20493;-81
2022/09/03 13:24:35;;;;;;;2.53;0.40;;;16.90;99.90;;;;;;5072010;28;20095;-81